Flight Track Log - Related Links

Times and Time Zones

All times are in EDT time to prevent confusion due to time zone crossing. See the FLG3735 flight status page for this flight to view local times or setup timezone preferences in your user account.

Time Position Orientation Groundspeed Altitude Reporting Facility
EDT Latitude Longitude Course Direction KTS MPH feet Rate Location/Type
Fri 10:44:36 PM 42.1994 -83.3581 82° East 166 191 1,200  Level Cleveland Center
Fri 10:46:07 PM 42.1142 -83.3544 178° South 227 261 4,000 1,856 Climbing Cleveland Center
Fri 10:46:55 PM 42.0600 -83.3492 176° South 282 325 5,500 2,139 Climbing Cleveland Center
Fri 10:47:00 PM 42.2854 -82.9065 75° East  Level FlightAware Approximate
Fri 10:48:00 PM 42.3149 -82.7589 75° East  Level FlightAware Approximate
Fri 10:48:02 PM 42.0356 -83.2419 107° East 285 328 8,100  Level Cleveland Center
Fri 10:48:32 PM 42.0425 -83.2114 73° East 294 338 8,700 1,733 Climbing Cleveland Center
Fri 10:49:00 PM 42.3309 -82.6075 82° East  Level FlightAware Approximate
Fri 10:49:32 PM 42.0886 -83.1069 59° Northeast 299 344 10,700  Level Cleveland Center
Fri 10:50:32 PM 42.1344 -83.0025 59° Northeast 304 350 12,200 1,650 Climbing Cleveland Center
Fri 10:51:32 PM 42.1806 -82.8919 61° Northeast 321 369 14,000 1,600 Climbing Cleveland Center
Fri 10:52:32 PM 42.2081 -82.7642 74° East 334 384 15,400 1,250 Climbing Cleveland Center
Fri 10:53:32 PM 42.2211 -82.6272 83° East 352 405 16,500 1,150 Climbing Cleveland Center
Fri 10:54:32 PM 42.2339 -82.4872 83° East 358 412 17,700 1,200 Climbing Cleveland Center
Fri 10:55:32 PM 42.2467 -82.3475 83° East 371 427 18,900 950 Climbing Cleveland Center
Fri 10:56:32 PM 42.2633 -82.1992 81° East 382 440 19,600 800 Climbing Cleveland Center
Fri 10:57:32 PM 42.2758 -82.0536 83° East 392 451 20,500 850 Climbing Cleveland Center
Fri 10:58:32 PM 42.2922 -81.8997 82° East 399 459 21,300 700 Climbing Cleveland Center
Fri 10:59:32 PM 42.3064 -81.7511 83° East 399 459 21,900 700 Climbing Cleveland Center
Fri 11:00:32 PM 42.3181 -81.6025 84° East 404 465 22,700 700 Climbing Cleveland Center
Fri 11:01:32 PM 42.3342 -81.4342 83° East 404 465 23,300 550 Climbing Cleveland Center
Fri 11:02:32 PM 42.3475 -81.2828 83° East 409 471 23,800 550 Climbing Cleveland Center
Fri 11:03:32 PM 42.3608 -81.1283 83° East 404 465 24,400 550 Climbing Cleveland Center
Fri 11:04:32 PM 42.3742 -80.9739 83° East 404 465 24,900 300 Climbing Cleveland Center
Fri 11:05:32 PM 42.3869 -80.8192 84° East 410 472 25,000 50 Climbing Cleveland Center
Fri 11:06:32 PM 42.3997 -80.6564 84° East 418 481 25,000  Level Cleveland Center
Fri 11:07:32 PM 42.4122 -80.4961 84° East 428 493 25,000  Level Cleveland Center
Fri 11:08:32 PM 42.4244 -80.3300 84° East 433 498 25,000  Level Cleveland Center
Fri 11:09:32 PM 42.4386 -80.1894 82° East 428 493 25,000  Level Cleveland Center
Fri 11:10:32 PM 42.4506 -80.0289 84° East 422 486 25,000  Level Cleveland Center
Fri 11:11:32 PM 42.4683 -79.8514 82° East 422 486 25,000  Level Cleveland Center
Fri 11:12:32 PM 42.4775 -79.6936 85° East 422 486 25,000  Level Cleveland Center
Fri 11:13:32 PM 42.4867 -79.5303 86° East 422 486 25,000  Level Cleveland Center
Fri 11:14:32 PM 42.4997 -79.3694 84° East 427 491 25,000  Level Cleveland Center
Fri 11:15:32 PM 42.5083 -79.2031 86° East 427 491 25,000  Level Cleveland Center
Fri 11:16:32 PM 42.5208 -79.0394 84° East 427 491 25,000  Level Cleveland Center
Fri 11:17:32 PM 42.5331 -78.8756 84° East 427 491 25,000  Level Cleveland Center
Fri 11:18:32 PM 42.5431 -78.7092 85° East 427 491 25,000  Level Cleveland Center
Fri 11:19:32 PM 42.5528 -78.5453 85° East 433 498 25,000  Level Cleveland Center
Fri 11:20:32 PM 42.5622 -78.3758 86° East 439 505 25,000  Level Cleveland Center
Fri 11:21:32 PM 42.5733 -78.2092 85° East 444 511 25,000  Level Cleveland Center
Fri 11:22:32 PM 42.5844 -78.0394 85° East 444 511 25,000  Level Cleveland Center
Fri 11:23:32 PM 42.5931 -77.8728 86° East 444 511 25,000  Level Cleveland Center
Fri 11:24:32 PM 42.5978 -77.7231 87° East 449 517 25,000  Level Cleveland Center
Fri 11:25:32 PM 42.6103 -77.5561 84° East 443 510 25,000  Level Cleveland Center
Fri 11:26:32 PM 42.6181 -77.3836 86° East 443 510 25,000  Level Cleveland Center
Fri 11:28:13 PM 42.6347 -77.0892 86° East 463 533 25,000  Level Boston Center
Fri 11:29:13 PM 42.6414 -76.9172 87° East 458 527 25,000  Level Boston Center
Fri 11:30:13 PM 42.6489 -76.7822 86° East 458 527 25,000  Level Boston Center
Fri 11:31:13 PM 42.6586 -76.5767 86° East 458 527 25,000  Level Boston Center
Fri 11:32:13 PM 42.6667 -76.4078 86° East 458 527 25,000  Level Boston Center
Fri 11:33:13 PM 42.6714 -76.2725 87° East 453 521 25,000  Level Boston Center
Fri 11:34:13 PM 42.6800 -76.0725 87° East 448 516 25,000  Level Boston Center
Fri 11:35:13 PM 42.6856 -75.8975 87° East 448 516 25,000  Level Boston Center
Fri 11:36:13 PM 42.6925 -75.7311 87° East 448 516 25,000 -50 Level Boston Center
Fri 11:37:13 PM 42.6994 -75.5536 87° East 454 522 24,900 -1,100 Descending Boston Center
Fri 11:38:13 PM 42.7061 -75.3872 87° East 459 528 22,800 -2,150 Descending Boston Center
Fri 11:39:13 PM 42.7103 -75.2206 88° East 454 522 20,600 -2,150 Descending Boston Center
Fri 11:40:13 PM 42.7158 -75.0794 87° East 434 499 18,500 -2,200 Descending Boston Center
Fri 11:41:13 PM 42.7192 -74.9269 88° East 418 481 16,200 -2,150 Descending Boston Center
Fri 11:42:13 PM 42.7228 -74.7606 88° East 402 463 14,200 -1,846 Descending Boston Center
Fri 11:43:36 PM 42.7306 -74.5714 87° East 377 434 11,800 -1,550 Descending Boston Center
Fri 11:44:13 PM 42.7300 -74.4808 90° East 367 422 11,100 -680 Descending Boston Center
Fri 11:45:13 PM 42.7303 -74.3536 90° East 355 409 10,700 -1,000 Descending Boston Center
Fri 11:46:13 PM 42.6944 -74.2481 115° Southeast 313 360 9,100 -1,800 Descending Boston Center
Fri 11:47:13 PM 42.6647 -74.1483 112° Southeast 290 334 7,100 -2,000 Descending Boston Center
Fri 11:48:13 PM 42.6408 -74.0686 112° Southeast 272 313 5,100 -1,550 Descending Boston Center
Fri 11:49:13 PM 42.6131 -73.9833 114° Southeast 255 293 4,000 -600 Descending Boston Center
Fri 11:50:13 PM 42.5911 -73.8953 109° East 233 268 3,900 -636 Descending Boston Center
Fri 11:51:25 PM 42.5878 -73.8247 94° East 220 253 2,600 -1,083 Descending Boston Center

Login

Don't have an account? Register now (free) for customized features, flight alerts, and more!